Time;durP1;ratioP1;P1;durP2;ratioP2;P2;SDS_P1;SDS_P2;PMS_P1;PMS_P2;Temp;Humidity;BMP_temperature;BMP_pressure;BME280_temperature;BME280_humidity;BME280_pressure;Samples;Min_cycle;Max_cycle;Signal;HPM_P1;HPM_P2
2024/02/24 00:02:38;;;;;;;4.90;3.67;;;;;;;7.33;52.67;97006.31;6978347;28;20291;-79
2024/02/24 00:06:00;;;;;;;5.83;3.97;;;;;;;6.93;53.38;96966.91;6977984;28;20224;-80
2024/02/24 00:09:22;;;;;;;4.23;3.37;;;;;;;7.59;52.73;97005.91;6978043;28;20229;-80
2024/02/24 00:12:43;;;;;;;4.77;3.30;;;;;;;7.71;52.03;97014.00;6976996;28;20203;-79
2024/02/24 00:16:05;;;;;;;4.50;3.30;;;;;;;7.93;51.78;97007.03;6977135;28;20229;-80
2024/02/24 00:19:28;;;;;;;3.90;3.10;;;;;;;7.50;52.71;97014.53;6975678;28;20234;-80
2024/02/24 00:22:50;;;;;;;2.80;2.53;;;;;;;7.93;51.27;97005.16;6978775;28;20280;-80
2024/02/24 00:26:11;;;;;;;3.57;2.50;;;;;;;7.61;51.88;97009.19;6976800;28;20335;-79
2024/02/24 00:29:33;;;;;;;4.70;2.50;;;;;;;7.71;52.33;97003.28;6976042;28;20328;-80
2024/02/24 00:32:54;;;;;;;4.03;2.70;;;;;;;7.58;51.89;96980.16;6972204;28;20339;-79
2024/02/24 00:36:18;;;;;;;3.53;3.20;;;;;;;7.63;51.63;97008.94;6971672;28;20634;-78
2024/02/24 00:39:40;;;;;;;3.80;3.03;;;;;;;7.78;51.75;97001.31;6971282;28;20257;-78
2024/02/24 00:43:01;;;;;;;3.30;3.07;;;;;;;7.28;52.93;97003.50;6971313;28;20369;-80
2024/02/24 00:46:23;;;;;;;4.60;3.20;;;;;;;7.50;52.84;97018.03;6971161;28;20208;-78
2024/02/24 00:49:44;;;;;;;3.20;2.90;;;;;;;7.78;51.73;96999.41;6970150;28;20234;-79
2024/02/24 00:53:07;;;;;;;5.03;3.20;;;;;;;7.67;51.69;97005.56;6970488;28;20290;-79
2024/02/24 00:56:28;;;;;;;3.23;3.00;;;;;;;7.74;51.74;97011.69;6970608;28;20255;-79
2024/02/24 00:59:50;;;;;;;3.23;2.93;;;;;;;7.42;52.66;97018.34;6969873;28;20264;-78
2024/02/24 01:03:11;;;;;;;3.90;3.03;;;;;;;6.98;53.76;97013.41;6970440;28;20348;-78
2024/02/24 01:06:33;;;;;;;3.67;3.03;;;;;;;7.06;54.18;97012.25;6970152;28;20293;-78
2024/02/24 01:09:56;;;;;;;3.43;3.13;;;;;;;7.04;54.17;97007.16;6969367;28;20288;-79
2024/02/24 01:13:17;;;;;;;5.57;3.43;;;;;;;7.06;54.54;97017.63;6969739;28;20688;-78
2024/02/24 01:16:39;;;;;;;4.13;3.07;;;;;;;7.60;52.62;97004.88;6974816;28;20213;-80
2024/02/24 01:20:01;;;;;;;5.70;3.97;;;;;;;7.31;52.10;97000.34;6975431;28;20271;-80
2024/02/24 01:23:24;;;;;;;4.40;2.80;;;;;;;7.36;52.58;96997.81;6976202;28;20211;-78
2024/02/24 01:26:47;;;;;;;4.83;3.20;;;;;;;7.58;51.97;97011.50;6976073;28;20212;-79
2024/02/24 01:30:09;;;;;;;5.20;2.90;;;;;;;7.46;51.60;97016.84;6975799;28;20324;-79
2024/02/24 01:33:30;;;;;;;5.63;3.70;;;;;;;6.65;54.08;97026.38;6976428;28;20255;-80
2024/02/24 01:36:52;;;;;;;3.80;2.97;;;;;;;7.00;54.02;97026.56;6969571;28;20407;-78
2024/02/24 01:40:14;;;;;;;2.80;2.60;;;;;;;6.78;54.32;97015.50;6969329;28;20318;-78
2024/02/24 01:43:38;;;;;;;3.20;2.83;;;;;;;6.82;54.07;97034.59;6969356;28;20287;-79
2024/02/24 01:46:59;;;;;;;4.97;2.93;;;;;;;6.05;56.36;97045.94;6969393;28;20636;-80
2024/02/24 01:50:21;;;;;;;3.03;2.73;;;;;;;6.56;55.32;97010.84;6969861;28;20371;-80
2024/02/24 01:53:43;;;;;;;3.57;2.87;;;;;;;7.27;54.38;97046.59;6967807;28;20310;-80
2024/02/24 01:57:05;;;;;;;3.27;2.97;;;;;;;7.02;54.00;97049.41;6941612;28;20805;-80
2024/02/24 02:00:28;;;;;;;5.03;2.90;;;;;;;7.47;52.63;97064.06;6958226;28;20336;-79
2024/02/24 02:03:51;;;;;;;3.10;2.90;;;;;;;7.57;52.33;97061.66;6972325;28;20235;-79
2024/02/24 02:07:12;;;;;;;3.37;3.07;;;;;;;6.97;53.47;97061.84;6971662;28;20701;-80
2024/02/24 02:10:44;;;;;;;4.53;2.90;;;;;;;7.10;53.84;97075.06;6970082;28;20370;-78
2024/02/24 02:14:06;;;;;;;3.23;3.00;;;;;;;6.41;56.07;97066.56;6968862;28;20653;-78
2024/02/24 02:17:29;;;;;;;5.30;2.87;;;;;;;6.43;56.45;97064.50;6968235;28;20258;-79
2024/02/24 02:20:52;;;;;;;3.07;2.83;;;;;;;7.34;54.42;97055.38;6968861;28;20275;-79
2024/02/24 02:24:16;;;;;;;3.67;2.47;;;;;;;7.35;53.62;97057.84;6968616;28;20718;-79
2024/02/24 02:27:37;;;;;;;3.23;2.93;;;;;;;6.78;55.10;97077.09;6968802;28;20275;-79
2024/02/24 02:31:00;;;;;;;5.03;3.20;;;;;;;6.51;55.63;97064.22;6968279;28;20751;-79
2024/02/24 02:34:21;;;;;;;2.97;2.70;;;;;;;7.08;55.00;97058.41;6968507;28;20277;-79
2024/02/24 02:37:43;;;;;;;2.70;2.50;;;;;;;7.24;54.67;97055.91;6967936;28;20752;-78
2024/02/24 02:41:06;;;;;;;2.63;2.50;;;;;;;7.54;53.61;97051.38;6968864;28;20718;-79
2024/02/24 02:44:27;;;;;;;3.57;2.50;;;;;;;7.61;53.61;97045.91;6968726;28;20213;-78
2024/02/24 02:47:49;;;;;;;4.23;2.50;;;;;;;7.33;53.79;97006.31;6968711;28;20361;-78
2024/02/24 02:51:10;;;;;;;3.43;2.50;;;;;;;7.74;53.20;97032.31;6973482;28;20318;-79
2024/02/24 02:54:32;;;;;;;2.53;2.37;;;;;;;8.01;53.15;97033.53;6974114;28;20278;-78
2024/02/24 02:57:54;;;;;;;2.60;2.40;;;;;;;8.37;51.69;97055.63;6971867;28;20319;-78
2024/02/24 03:01:16;;;;;;;3.27;2.70;;;;;;;8.10;52.35;97059.78;6973846;28;20238;-78
2024/02/24 03:04:38;;;;;;;2.27;2.10;;;;;;;8.03;52.48;97024.19;6973909;28;20349;-79
2024/02/24 03:07:59;;;;;;;2.60;2.40;;;;;;;8.09;52.71;97078.78;6972716;28;20331;-78
2024/02/24 03:11:21;;;;;;;3.40;2.50;;;;;;;7.69;53.69;97034.84;6973432;28;20365;-79
2024/02/24 03:14:44;;;;;;;2.50;2.33;;;;;;;8.31;53.43;97051.19;6973368;28;20256;-79
2024/02/24 03:18:05;;;;;;;3.10;2.27;;;;;;;9.03;51.73;97054.13;6972253;28;20234;-78
2024/02/24 03:21:28;;;;;;;2.67;2.13;;;;;;;9.43;50.47;97051.41;6973405;28;20341;-79
2024/02/24 03:24:50;;;;;;;3.03;2.17;;;;;;;9.42;49.62;97049.78;6973060;28;20233;-78
2024/02/24 03:28:11;;;;;;;2.27;2.07;;;;;;;9.09;50.21;97033.56;6972726;28;20356;-79
2024/02/24 03:31:34;;;;;;;2.50;2.30;;;;;;;9.00;50.47;97026.91;6973222;28;20317;-78
2024/02/24 03:34:55;;;;;;;2.13;2.00;;;;;;;8.99;50.63;97027.97;6945948;28;20337;-79
2024/02/24 03:38:17;;;;;;;3.33;2.33;;;;;;;8.80;51.02;97053.38;6972346;28;20823;-78
2024/02/24 03:41:38;;;;;;;2.57;2.20;;;;;;;8.74;51.41;97037.38;6972897;28;20297;-79
2024/02/24 03:45:00;;;;;;;2.20;2.10;;;;;;;9.07;50.71;97016.84;6972599;28;20293;-78
2024/02/24 03:48:23;;;;;;;5.10;2.50;;;;;;;8.54;51.89;97020.84;6953729;28;20229;-78
2024/02/24 03:51:44;;;;;;;2.60;2.20;;;;;;;8.72;51.67;97013.44;6944698;28;20273;-78
2024/02/24 03:55:07;;;;;;;2.60;2.40;;;;;;;9.10;51.16;97027.13;6951929;28;20680;-78
2024/02/24 03:58:28;;;;;;;4.03;2.70;;;;;;;9.16;51.06;97040.41;6965629;28;20225;-78
2024/02/24 04:01:50;;;;;;;4.37;2.80;;;;;;;8.73;51.32;97044.59;6972461;28;20301;-79
2024/02/24 04:05:12;;;;;;;5.13;2.87;;;;;;;8.54;51.82;96981.34;6972923;28;20289;-78
2024/02/24 04:08:34;;;;;;;5.13;2.80;;;;;;;8.90;51.55;97053.56;6971933;28;20770;-79
2024/02/24 04:11:56;;;;;;;3.80;2.67;;;;;;;8.73;51.97;97057.25;6972764;28;20697;-78
2024/02/24 04:15:19;;;;;;;3.13;2.40;;;;;;;9.14;50.92;97041.72;6972331;28;20253;-78
2024/02/24 04:18:41;;;;;;;2.77;2.57;;;;;;;9.21;50.92;97045.09;6971856;28;20233;-78
2024/02/24 04:22:04;;;;;;;3.23;2.70;;;;;;;8.83;50.74;97012.59;6977382;28;20616;-79
2024/02/24 04:25:25;;;;;;;4.60;2.80;;;;;;;9.02;51.01;97060.56;6979174;28;20209;-80
2024/02/24 04:28:47;;;;;;;3.00;2.70;;;;;;;9.05;50.74;97054.69;6979156;28;20253;-80
2024/02/24 04:32:08;;;;;;;3.17;2.97;;;;;;;8.52;52.35;97065.88;6979939;28;20346;-79
2024/02/24 04:35:30;;;;;;;2.80;2.60;;;;;;;8.67;52.21;97075.09;6979230;28;20202;-80
2024/02/24 04:38:53;;;;;;;3.87;2.73;;;;;;;8.75;51.71;97082.81;6979454;28;20253;-80
2024/02/24 04:42:14;;;;;;;3.13;2.87;;;;;;;8.96;51.08;97087.56;6979982;28;20806;-80
2024/02/24 04:45:36;;;;;;;4.90;2.77;;;;;;;8.96;51.28;97090.25;6978646;28;20268;-80
2024/02/24 04:48:58;;;;;;;3.27;2.50;;;;;;;9.12;50.82;97084.16;6978174;28;20217;-80
2024/02/24 04:52:19;;;;;;;3.20;2.83;;;;;;;8.26;52.45;97090.53;6980177;28;20209;-79
2024/02/24 04:55:42;;;;;;;4.07;2.83;;;;;;;7.72;55.65;97094.22;6979351;28;20225;-79
2024/02/24 04:59:04;;;;;;;2.97;2.30;;;;;;;8.06;54.53;97098.03;6977847;28;20375;-80
2024/02/24 05:02:25;;;;;;;2.50;2.30;;;;;;;9.09;51.81;97104.25;6980383;28;20671;-80
2024/02/24 05:05:47;;;;;;;5.27;2.97;;;;;;;9.30;50.92;97103.63;6978878;28;20291;-80
2024/02/24 05:09:11;;;;;;;3.97;2.90;;;;;;;9.35;50.96;97101.06;6979616;28;20703;-80
2024/02/24 05:12:34;;;;;;;3.77;2.47;;;;;;;9.43;50.15;97124.88;6980324;28;20202;-80
2024/02/24 05:15:56;;;;;;;4.07;3.10;;;;;;;9.10;51.59;97122.00;6981558;28;20211;-80
2024/02/24 05:19:17;;;;;;;3.57;2.60;;;;;;;9.08;51.30;97086.50;6979860;28;20249;-79
2024/02/24 05:22:39;;;;;;;2.80;2.53;;;;;;;9.11;51.22;97114.78;6981785;28;20202;-79
2024/02/24 05:26:00;;;;;;;2.90;2.70;;;;;;;8.89;52.04;97134.44;6979258;28;20344;-79
2024/02/24 05:29:24;;;;;;;5.20;2.70;;;;;;;8.96;52.21;97152.06;6977640;28;20233;-79
2024/02/24 05:32:45;;;;;;;2.97;2.77;;;;;;;8.96;52.02;97148.56;6983124;28;20297;-79
2024/02/24 05:36:07;;;;;;;3.03;2.73;;;;;;;8.42;53.51;97143.53;6983291;28;20202;-80
2024/02/24 05:39:29;;;;;;;3.27;2.87;;;;;;;8.88;53.07;97148.91;6975691;28;20304;-80
2024/02/24 05:42:51;;;;;;;3.00;2.70;;;;;;;8.67;54.12;97162.94;6970764;28;20214;-80
2024/02/24 05:46:16;;;;;;;2.67;2.47;;;;;;;9.16;52.70;97149.84;6971070;28;20206;-80
2024/02/24 05:49:38;;;;;;;5.10;2.83;;;;;;;8.96;52.68;97145.88;6971073;28;20269;-80
2024/02/24 05:52:59;;;;;;;2.93;2.50;;;;;;;9.45;51.56;97162.28;6971719;28;20289;-80
2024/02/24 05:56:21;;;;;;;6.00;3.17;;;;;;;9.60;51.26;97171.50;6967484;28;20676;-80
2024/02/24 05:59:42;;;;;;;3.63;2.70;;;;;;;9.30;51.63;97149.34;6969685;28;20261;-80
2024/02/24 06:03:07;;;;;;;2.87;2.67;;;;;;;9.46;51.82;97186.25;6972105;28;20289;-80
2024/02/24 06:06:29;;;;;;;3.73;2.90;;;;;;;9.64;50.96;97194.16;6971544;28;20194;-80
2024/02/24 06:09:50;;;;;;;4.27;2.90;;;;;;;9.65;50.67;97193.13;6971800;28;20368;-80
2024/02/24 06:13:12;;;;;;;3.03;2.73;;;;;;;8.68;52.85;97148.47;6973039;28;20269;-80
2024/02/24 06:16:33;;;;;;;2.83;2.63;;;;;;;9.48;51.56;97210.22;6973070;28;20293;-80
2024/02/24 06:19:56;;;;;;;4.33;3.07;;;;;;;9.55;51.25;97216.28;6970428;28;20317;-80
2024/02/24 06:23:18;;;;;;;4.47;3.03;;;;;;;9.33;51.74;97224.16;6970929;28;20289;-80
2024/02/24 06:26:39;;;;;;;4.77;3.23;;;;;;;9.19;52.18;97220.09;6970361;28;20720;-79
2024/02/24 06:30:01;;;;;;;3.93;3.63;;;;;;;9.17;52.33;97229.44;6969937;28;20329;-79
2024/02/24 06:33:22;;;;;;;4.63;2.70;;;;;;;9.15;52.47;97229.66;6970917;28;20283;-79
2024/02/24 06:36:45;;;;;;;2.90;2.60;;;;;;;9.32;52.06;97248.59;6971001;28;20206;-79
2024/02/24 06:40:08;;;;;;;2.90;2.70;;;;;;;9.39;52.01;97243.94;6951033;28;20301;-79
2024/02/24 06:43:29;;;;;;;3.40;3.10;;;;;;;9.18;53.11;97263.31;6970700;28;20229;-78
2024/02/24 06:46:51;;;;;;;3.90;2.60;;;;;;;9.01;53.91;97264.28;6972054;28;20293;-80
2024/02/24 06:50:12;;;;;;;6.33;2.33;;;;;;;9.00;53.61;97268.81;6972009;28;20325;-79
2024/02/24 06:53:35;;;;;;;2.70;2.50;;;;;;;8.79;54.58;97274.72;6970658;28;20297;-80
2024/02/24 06:56:57;;;;;;;3.33;2.63;;;;;;;9.13;54.18;97280.16;6970476;28;20289;-80
2024/02/24 07:00:19;;;;;;;6.23;3.37;;;;;;;9.04;54.23;97278.88;6978135;28;20316;-79
2024/02/24 07:03:40;;;;;;;3.37;2.40;;;;;;;9.08;55.65;97298.03;6967291;28;20297;-78
2024/02/24 07:07:02;;;;;;;2.73;2.53;;;;;;;9.35;54.94;97305.44;6963908;28;20467;-79
2024/02/24 07:10:24;;;;;;;2.80;2.57;;;;;;;9.38;54.83;97306.81;6963497;28;20271;-78
2024/02/24 07:13:46;;;;;;;3.73;2.20;;;;;;;8.71;56.39;97272.38;6964608;28;20203;-79
2024/02/24 07:17:08;;;;;;;2.30;2.20;;;;;;;8.70;57.17;97315.59;6964024;28;20207;-80
2024/02/24 07:20:29;;;;;;;2.60;2.40;;;;;;;9.20;56.18;97313.13;6965123;28;20330;-77
2024/02/24 07:23:51;;;;;;;2.40;2.20;;;;;;;9.31;55.39;97319.56;6966985;28;20211;-77
2024/02/24 07:27:14;;;;;;;2.70;2.50;;;;;;;8.97;56.51;97320.38;6966235;28;20584;-77
2024/02/24 07:30:36;;;;;;;4.90;2.83;;;;;;;8.60;57.30;97326.91;6966675;28;20291;-77
2024/02/24 07:33:57;;;;;;;2.90;2.60;;;;;;;9.10;56.68;97320.13;6966480;28;20230;-77
2024/02/24 07:37:19;;;;;;;4.00;2.90;;;;;;;9.21;56.29;97335.47;6971183;28;20247;-77
2024/02/24 07:40:41;;;;;;;4.07;2.60;;;;;;;9.43;55.38;97345.41;6971470;28;20252;-79
2024/02/24 07:44:04;;;;;;;2.90;2.23;;;;;;;9.61;55.08;97334.53;6959403;28;20234;-79
2024/02/24 07:47:25;;;;;;;2.93;2.20;;;;;;;9.91;54.45;97374.75;6945345;28;20203;-78
2024/02/24 07:50:47;;;;;;;2.33;2.20;;;;;;;9.90;54.07;97371.28;6960706;28;20317;-78
2024/02/24 07:54:09;;;;;;;2.13;2.00;;;;;;;9.77;54.57;97397.59;6969094;28;20213;-79
2024/02/24 07:57:30;;;;;;;2.60;2.40;;;;;;;9.70;54.10;97354.66;6970179;28;20226;-77
2024/02/24 08:00:53;;;;;;;2.00;1.90;;;;;;;10.18;52.72;97371.38;6970273;28;20300;-77
2024/02/24 08:04:14;;;;;;;2.00;1.90;;;;;;;9.92;53.19;97390.69;6971634;28;20288;-77
2024/02/24 08:07:36;;;;;;;2.20;2.00;;;;;;;10.07;52.88;97390.25;6965604;28;20246;-77
2024/02/24 08:10:58;;;;;;;2.70;2.50;;;;;;;9.92;53.04;97406.84;6970852;28;20376;-77
2024/02/24 08:14:19;;;;;;;2.30;1.80;;;;;;;10.26;52.00;97405.19;6971565;28;20206;-79
2024/02/24 08:17:42;;;;;;;1.73;1.70;;;;;;;9.38;53.10;97422.47;6974118;28;20750;-79
2024/02/24 08:21:07;;;;;;;2.23;1.60;;;;;;;9.97;52.82;97408.81;6974479;28;20768;-79
2024/02/24 08:24:29;;;;;;;1.60;1.60;;;;;;;10.55;49.90;97423.06;6963978;28;20260;-79
2024/02/24 08:27:50;;;;;;;2.10;1.80;;;;;;;10.81;49.97;97436.81;6969885;28;20313;-80
2024/02/24 08:31:12;;;;;;;2.10;1.80;;;;;;;10.41;50.31;97438.69;6975832;28;20329;-79
2024/02/24 08:34:34;;;;;;;2.23;2.03;;;;;;;10.67;49.57;97431.94;6973316;28;20297;-79
2024/02/24 08:37:56;;;;;;;1.40;1.40;;;;;;;10.74;49.01;97441.53;6972901;28;20313;-79
2024/02/24 08:41:17;;;;;;;1.77;1.67;;;;;;;11.23;48.08;97448.13;6960955;28;20318;-78
2024/02/24 08:44:39;;;;;;;1.50;1.50;;;;;;;11.12;48.05;97443.63;6944636;28;20301;-79
2024/02/24 08:48:00;;;;;;;1.60;1.50;;;;;;;13.04;45.68;97455.28;6968931;28;20363;-79
2024/02/24 08:51:23;;;;;;;1.67;1.63;;;;;;;13.43;42.89;97456.75;6971430;28;20281;-80
2024/02/24 08:54:45;;;;;;;1.47;1.47;;;;;;;13.84;41.60;97450.66;6970784;28;20233;-81
2024/02/24 08:58:06;;;;;;;1.47;1.37;;;;;;;14.55;40.06;97447.38;6967416;28;20222;-81
2024/02/24 09:01:28;;;;;;;1.00;1.00;;;;;;;16.31;37.02;97420.34;6977958;28;20215;-80
2024/02/24 09:04:49;;;;;;;1.20;1.20;;;;;;;17.05;35.40;97450.34;6977856;28;20290;-79
2024/02/24 09:08:12;;;;;;;1.20;1.20;;;;;;;16.93;35.35;97456.09;6970557;28;20221;-80
2024/02/24 09:11:34;;;;;;;1.17;1.17;;;;;;;18.03;33.65;97451.94;6973863;28;20312;-81
2024/02/24 09:14:55;;;;;;;1.40;1.30;;;;;;;16.43;35.65;97455.44;6974310;28;20356;-80
2024/02/24 09:18:17;;;;;;;1.73;1.50;;;;;;;17.57;33.57;97456.91;6973012;28;20324;-80
2024/02/24 09:21:39;;;;;;;1.40;1.30;;;;;;;16.88;33.71;97466.22;6975031;28;20340;-81
2024/02/24 09:25:01;;;;;;;1.80;1.40;;;;;;;16.95;34.25;97470.28;6972590;28;20295;-78
2024/02/24 09:28:23;;;;;;;1.20;1.20;;;;;;;16.16;35.22;97471.22;6972462;28;20310;-78
2024/02/24 09:31:44;;;;;;;1.30;1.30;;;;;;;13.20;40.55;97489.53;6969665;28;20321;-79
2024/02/24 09:35:07;;;;;;;1.47;1.43;;;;;;;13.36;40.71;97477.81;6973640;28;20236;-80
2024/02/24 09:38:29;;;;;;;1.10;1.10;;;;;;;14.15;39.96;97485.88;6973197;28;20237;-80
2024/02/24 09:41:52;;;;;;;1.70;1.60;;;;;;;13.11;40.06;97472.13;6972456;28;20699;-79
2024/02/24 09:45:14;;;;;;;1.50;1.40;;;;;;;13.70;40.00;97485.47;6970293;28;20303;-79
2024/02/24 09:48:36;;;;;;;1.10;1.10;;;;;;;12.95;41.05;97486.50;6969045;28;20224;-79
2024/02/24 09:51:58;;;;;;;1.93;1.77;;;;;;;13.46;39.92;97475.22;6969916;28;20227;-78
2024/02/24 09:55:20;;;;;;;1.30;1.20;;;;;;;14.16;39.85;97487.50;6969408;28;20290;-79
2024/02/24 09:58:44;;;;;;;1.70;1.60;;;;;;;13.98;38.25;97471.63;6968439;28;20251;-79
2024/02/24 10:02:06;;;;;;;2.03;1.80;;;;;;;14.81;37.80;97479.00;6969776;28;20357;-80
2024/02/24 10:05:27;;;;;;;1.40;1.30;;;;;;;14.94;37.22;97470.38;6969337;28;20238;-80
2024/02/24 10:08:49;;;;;;;1.40;1.40;;;;;;;14.62;37.15;97483.25;6968147;28;20229;-83
2024/02/24 10:12:10;;;;;;;1.60;1.50;;;;;;;15.27;36.23;97470.78;6971797;28;20224;-83
2024/02/24 10:15:35;;;;;;;1.70;1.60;;;;;;;14.11;37.44;97468.47;6971606;28;20238;-82
2024/02/24 10:19:00;;;;;;;1.37;1.33;;;;;;;14.91;36.65;97487.19;6970630;28;20297;-82
2024/02/24 10:22:22;;;;;;;2.30;1.50;;;;;;;15.15;36.69;97472.91;6969909;28;20226;-79
2024/02/24 10:25:45;;;;;;;6.40;3.27;;;;;;;15.42;36.62;97481.72;6968870;28;20208;-82
2024/02/24 10:29:07;;;;;;;1.40;1.30;;;;;;;15.07;36.10;97497.03;6975921;28;20729;-80
2024/02/24 10:32:30;;;;;;;1.97;1.87;;;;;;;15.41;36.83;97501.81;6974837;28;20232;-77
2024/02/24 10:35:54;;;;;;;1.60;1.30;;;;;;;15.10;36.39;97508.16;6967865;28;20286;-76
2024/02/24 10:39:15;;;;;;;1.60;1.40;;;;;;;14.77;37.24;97513.16;6967171;28;20656;-77
2024/02/24 10:42:37;;;;;;;1.43;1.33;;;;;;;14.84;37.02;97509.13;6970708;28;20677;-79
2024/02/24 10:45:58;;;;;;;1.60;1.50;;;;;;;14.78;37.39;97517.50;6967698;28;20698;-80
2024/02/24 10:49:21;;;;;;;1.30;1.30;;;;;;;15.26;36.10;97511.75;6999015;28;20248;-80
2024/02/24 10:52:43;;;;;;;1.20;1.20;;;;;;;14.45;36.77;97501.59;6984537;28;20273;-77
2024/02/24 10:56:05;;;;;;;1.40;1.27;;;;;;;14.96;35.86;97508.91;6981905;28;20710;-77
2024/02/24 10:59:27;;;;;;;1.20;1.20;;;;;;;14.70;35.46;97513.38;6981447;28;20321;-79
2024/02/24 11:02:49;;;;;;;1.30;1.20;;;;;;;14.84;35.35;97517.28;6985897;28;20288;-79
2024/02/24 11:06:13;;;;;;;1.20;1.20;;;;;;;15.19;36.05;97511.19;7008348;28;20239;-81
2024/02/24 11:09:36;;;;;;;1.60;1.50;;;;;;;15.04;34.68;97487.50;7005290;28;20309;-78
2024/02/24 11:13:00;;;;;;;1.40;1.37;;;;;;;15.01;34.77;97508.94;7011896;28;20732;-79
2024/02/24 11:16:23;;;;;;;1.43;1.40;;;;;;;14.65;35.44;97515.25;7007260;28;20613;-77
2024/02/24 11:19:46;;;;;;;1.17;1.17;;;;;;;14.44;35.27;97522.44;6987149;28;20236;-79
2024/02/24 11:23:22;;;;;;;2.87;1.67;;;;;;;14.47;35.52;97488.56;6972033;28;20570;-77
2024/02/24 11:26:44;;;;;;;1.43;1.30;;;;;;;14.71;34.85;97512.31;6958206;28;20227;-80
2024/02/24 11:30:43;;;;;;;1.10;1.10;;;;;;;14.35;34.69;97505.03;6973582;28;20232;-78
2024/02/24 11:34:06;;;;;;;1.40;1.30;;;;;;;14.74;35.06;97492.78;6972565;28;20362;-77
2024/02/24 11:37:28;;;;;;;1.17;1.10;;;;;;;15.59;34.00;97514.91;6971162;28;20213;-77
2024/02/24 11:40:51;;;;;;;1.13;1.13;;;;;;;14.28;35.68;97506.34;6975466;28;20343;-77
2024/02/24 11:44:13;;;;;;;0.90;0.90;;;;;;;14.93;33.65;97525.75;6977633;28;20323;-77
2024/02/24 11:47:37;;;;;;;1.93;1.10;;;;;;;15.47;32.96;97527.09;6970962;28;20230;-77
2024/02/24 11:50:58;;;;;;;2.13;1.17;;;;;;;14.08;34.50;97503.41;6977117;28;20317;-78
2024/02/24 11:54:21;;;;;;;1.20;1.10;;;;;;;14.30;34.55;97537.53;6962810;28;20268;-76
2024/02/24 11:57:44;;;;;;;2.37;1.20;;;;;;;14.73;33.98;97536.47;6968958;28;20695;-78
2024/02/24 12:01:05;;;;;;;1.10;1.07;;;;;;;14.53;33.21;97515.47;6977739;28;20723;-78
2024/02/24 12:04:27;;;;;;;1.17;1.17;;;;;;;14.42;33.83;97524.59;6979350;28;20205;-78
2024/02/24 12:07:49;;;;;;;1.67;1.50;;;;;;;14.25;33.42;97482.44;6974830;28;20309;-77
2024/02/24 12:11:10;;;;;;;1.20;1.20;;;;;;;15.43;32.60;97475.19;6974838;28;20227;-79
2024/02/24 12:14:33;;;;;;;1.40;1.30;;;;;;;16.38;31.49;97512.53;6967647;28;20350;-80
2024/02/24 12:17:54;;;;;;;1.10;1.10;;;;;;;15.87;31.09;97486.41;6941028;28;20328;-77
2024/02/24 12:21:16;;;;;;;4.00;1.50;;;;;;;16.16;31.37;97501.91;6954778;28;20292;-77
2024/02/24 12:24:38;;;;;;;1.07;1.07;;;;;;;16.44;31.14;97508.75;6966861;28;20633;-76
2024/02/24 12:28:00;;;;;;;1.10;1.10;;;;;;;16.27;31.53;97500.84;6953927;28;20233;-79
2024/02/24 12:31:23;;;;;;;1.27;1.17;;;;;;;16.83;30.33;97499.72;6962370;28;20546;-79
2024/02/24 12:34:45;;;;;;;1.47;1.10;;;;;;;15.82;31.80;97457.31;6973879;28;20293;-77
2024/02/24 12:38:07;;;;;;;1.07;1.07;;;;;;;16.87;30.38;97508.13;6861907;28;20247;-79
2024/02/24 12:41:29;;;;;;;1.13;1.13;;;;;;;16.14;29.63;97465.22;6888751;28;20219;-79
2024/02/24 12:44:50;;;;;;;2.60;2.40;;;;;;;15.71;31.28;97484.75;6881186;28;20282;-77
2024/02/24 12:48:13;;;;;;;1.60;1.20;;;;;;;16.56;30.31;97501.09;6861266;28;20382;-78
2024/02/24 12:51:35;;;;;;;1.63;1.53;;;;;;;17.03;29.29;97510.53;6861513;28;20308;-79
2024/02/24 12:54:56;;;;;;;2.70;1.10;;;;;;;16.86;30.26;97507.31;6860249;28;20208;-78
2024/02/24 12:58:18;;;;;;;1.83;1.53;;;;;;;16.37;30.05;97510.88;6861242;28;20368;-77
2024/02/24 13:01:40;;;;;;;1.13;1.13;;;;;;;17.29;28.95;97522.94;6860754;28;20216;-78
2024/02/24 13:05:03;;;;;;;0.80;0.80;;;;;;;16.53;29.13;97507.94;6861582;28;20348;-80
2024/02/24 13:08:25;;;;;;;1.00;1.00;;;;;;;15.32;30.75;97518.84;6865047;28;20224;-79
2024/02/24 13:11:49;;;;;;;1.17;0.90;;;;;;;15.22;30.46;97491.69;6886948;28;20234;-78
2024/02/24 13:15:11;;;;;;;1.00;1.00;;;;;;;15.08;31.74;97525.81;6886866;28;20222;-78
2024/02/24 13:18:32;;;;;;;1.60;1.13;;;;;;;14.67;31.35;97511.22;6886269;28;20325;-78
2024/02/24 13:21:55;;;;;;;1.73;1.40;;;;;;;15.20;30.93;97515.53;6888276;28;20214;-79
2024/02/24 13:25:17;;;;;;;1.37;1.20;;;;;;;14.92;32.07;97522.19;6885027;28;20348;-79
2024/02/24 13:28:38;;;;;;;1.90;1.20;;;;;;;14.55;32.02;97515.19;6887072;28;20234;-79
2024/02/24 13:32:00;;;;;;;1.17;1.17;;;;;;;15.37;31.76;97510.75;6888083;28;20366;-79
2024/02/24 13:35:21;;;;;;;1.13;1.13;;;;;;;15.98;29.98;97526.13;6889702;28;20720;-81
2024/02/24 13:38:44;;;;;;;1.10;1.00;;;;;;;16.18;28.79;97491.59;6887997;28;20358;-78
2024/02/24 13:42:06;;;;;;;1.13;1.13;;;;;;;16.20;29.71;97513.06;6886361;28;20297;-78
2024/02/24 13:45:28;;;;;;;0.90;0.90;;;;;;;16.25;29.66;97513.06;6885073;28;20305;-78
2024/02/24 13:48:49;;;;;;;1.10;1.10;;;;;;;15.15;30.44;97529.91;6863838;28;20243;-79
2024/02/24 13:52:10;;;;;;;1.23;1.23;;;;;;;15.69;30.08;97527.69;6857601;28;20320;-80
2024/02/24 13:55:33;;;;;;;1.40;1.30;;;;;;;15.87;29.41;97530.72;6859353;28;20365;-78
2024/02/24 13:58:55;;;;;;;1.10;1.10;;;;;;;15.65;29.70;97534.75;6884105;28;20262;-77
2024/02/24 14:02:16;;;;;;;1.67;1.50;;;;;;;15.97;28.81;97547.03;6886858;28;20292;-80
2024/02/24 14:05:39;;;;;;;1.10;1.10;;;;;;;15.51;29.59;97552.66;6879962;28;20620;-78
2024/02/24 14:09:05;;;;;;;1.10;1.10;;;;;;;15.46;30.31;97548.00;6885901;28;20309;-79
2024/02/24 14:12:28;;;;;;;2.53;2.33;;;;;;;15.53;30.29;97547.75;6886248;28;20211;-78
2024/02/24 14:15:50;;;;;;;1.10;1.10;;;;;;;15.62;29.86;97546.97;6884715;28;20205;-80
2024/02/24 14:19:11;;;;;;;2.40;1.50;;;;;;;15.35;30.12;97562.63;6888624;28;20713;-80
2024/02/24 14:22:34;;;;;;;1.83;1.30;;;;;;;15.42;30.05;97573.25;6889411;28;20212;-80
2024/02/24 14:25:55;;;;;;;2.40;1.23;;;;;;;15.42;30.04;97574.06;6883258;28;20289;-80
2024/02/24 14:29:18;;;;;;;1.17;1.17;;;;;;;15.51;31.13;97579.81;6890711;28;20754;-80
2024/02/24 14:32:40;;;;;;;1.13;1.13;;;;;;;15.25;30.29;97567.97;6892368;28;20375;-80
2024/02/24 14:36:01;;;;;;;1.10;1.10;;;;;;;15.78;30.04;97575.81;6888922;28;20301;-80
2024/02/24 14:39:23;;;;;;;1.43;1.33;;;;;;;15.17;29.89;97563.03;6917034;28;20642;-80
2024/02/24 14:42:44;;;;;;;1.30;1.30;;;;;;;14.66;30.89;97582.00;6914271;28;20212;-80
2024/02/24 14:46:07;;;;;;;1.23;1.13;;;;;;;14.50;30.95;97577.53;6871658;28;20210;-80
2024/02/24 14:49:29;;;;;;;2.00;1.80;;;;;;;15.04;30.01;97577.09;6867273;28;20437;-80
2024/02/24 14:52:50;;;;;;;2.03;1.77;;;;;;;14.95;30.11;97580.56;6869462;28;20325;-80
2024/02/24 14:56:12;;;;;;;1.10;1.10;;;;;;;14.74;29.68;97584.25;6870520;28;20212;-80
2024/02/24 14:59:33;;;;;;;1.20;1.20;;;;;;;14.72;30.33;97578.25;6869753;28;20244;-80
2024/02/24 15:02:56;;;;;;;1.10;1.10;;;;;;;14.88;30.48;97586.25;6872424;28;20221;-80
2024/02/24 15:06:18;;;;;;;1.27;1.10;;;;;;;15.02;30.13;97581.97;6894039;28;20306;-80
2024/02/24 15:09:39;;;;;;;1.10;1.10;;;;;;;15.26;30.08;97574.22;6894029;28;20386;-80
2024/02/24 15:13:01;;;;;;;1.27;1.27;;;;;;;15.36;30.12;97577.00;6895947;28;20266;-81
2024/02/24 15:16:22;;;;;;;1.17;1.17;;;;;;;15.19;30.25;97571.75;6896932;28;20273;-79
2024/02/24 15:19:45;;;;;;;1.60;1.50;;;;;;;14.71;30.62;97579.31;6896357;28;20333;-80
2024/02/24 15:23:07;;;;;;;1.30;1.20;;;;;;;14.54;31.40;97575.94;6896698;28;20220;-79
2024/02/24 15:26:32;;;;;;;1.27;1.27;;;;;;;14.86;31.05;97593.81;6884321;28;20238;-80
2024/02/24 15:29:55;;;;;;;2.10;1.50;;;;;;;14.29;31.77;97581.97;6889598;28;20405;-78
2024/02/24 15:33:17;;;;;;;1.27;1.27;;;;;;;14.81;32.02;97596.47;6889030;28;20238;-80
2024/02/24 15:36:41;;;;;;;1.47;1.37;;;;;;;14.78;31.64;97594.31;6891887;23;20343;-83
2024/02/24 15:40:07;;;;;;;1.33;1.27;;;;;;;14.32;31.95;97605.88;6848006;28;20205;-82
2024/02/24 15:43:28;;;;;;;1.77;1.57;;;;;;;14.81;31.77;97609.25;6846535;28;20202;-81
2024/02/24 15:46:52;;;;;;;1.40;1.30;;;;;;;14.90;31.40;97604.94;6846048;28;20325;-85
2024/02/24 15:50:14;;;;;;;2.03;1.60;;;;;;;14.99;31.21;97600.69;6840828;28;20346;-82
2024/02/24 15:53:37;;;;;;;1.67;1.57;;;;;;;14.67;31.19;97624.31;6822301;29;20262;-82
2024/02/24 15:56:58;;;;;;;1.90;1.80;;;;;;;14.85;31.31;97622.03;6820861;29;20319;-82